Time;durP1;ratioP1;P1;durP2;ratioP2;P2;SDS_P1;SDS_P2;PMS_P1;PMS_P2;Temp;Humidity;BMP_temperature;BMP_pressure;BME280_temperature;BME280_humidity;BME280_pressure;Samples;Min_cycle;Max_cycle;Signal;HPM_P1;HPM_P2
2022/07/20 00:00:53;;;;;;;6.03;3.95;;;22.10;60.10;;;;;;5070538;28;20032;-46
2022/07/20 00:03:23;;;;;;;5.93;4.47;;;22.20;58.40;;;;;;5071592;28;20481;-46
2022/07/20 00:05:49;;;;;;;8.15;4.25;;;22.20;57.60;;;;;;5071603;28;20133;-48
2022/07/20 00:11:19;;;;;;;7.13;4.47;;;22.20;56.80;;;;;;5071433;28;20108;-46
2022/07/20 00:13:44;;;;;;;10.25;5.15;;;22.30;56.30;;;;;;5071342;28;20047;-48
2022/07/20 00:16:10;;;;;;;7.28;3.65;;;22.30;56.40;;;;;;5071034;28;20039;-46
2022/07/20 00:18:35;;;;;;;4.95;3.30;;;22.30;55.80;;;;;;5053648;28;20035;-49
2022/07/20 00:21:01;;;;;;;7.97;3.50;;;22.40;55.50;;;;;;5071192;28;20047;-47
2022/07/20 00:23:26;;;;;;;11.55;4.50;;;22.40;55.40;;;;;;5070941;28;20017;-48
2022/07/20 00:25:54;;;;;;;7.75;3.53;;;22.40;55.60;;;;;;5070822;28;20024;-47
2022/07/20 00:28:20;;;;;;;4.70;3.60;;;22.40;55.80;;;;;;5053370;28;20028;-46
2022/07/20 00:30:46;;;;;;;6.38;3.85;;;22.40;55.20;;;;;;5071087;28;20021;-45
2022/07/20 00:33:12;;;;;;;8.18;3.58;;;22.40;55.30;;;;;;5053753;28;20021;-46
2022/07/20 00:35:40;;;;;;;6.93;3.50;;;22.40;55.30;;;;;;5071074;28;20033;-46
2022/07/20 00:38:08;;;;;;;6.15;3.58;;;22.30;55.80;;;;;;5053028;28;20115;-47
2022/07/20 00:40:34;;;;;;;4.68;3.10;;;22.30;55.50;;;;;;5070899;28;20066;-45
2022/07/20 00:43:02;;;;;;;9.43;4.18;;;22.30;54.90;;;;;;5070726;28;20126;-46
2022/07/20 00:45:28;;;;;;;8.45;4.28;;;22.40;54.00;;;;;;5070628;28;20495;-45
2022/07/20 00:47:56;;;;;;;7.82;3.97;;;22.30;54.50;;;;;;5070669;28;20112;-46
2022/07/20 00:50:26;;;;;;;5.43;3.47;;;22.30;56.00;;;;;;5070679;28;20095;-45
2022/07/20 00:52:52;;;;;;;8.05;3.85;;;22.30;55.10;;;;;;5069950;28;20082;-45
2022/07/20 00:55:20;;;;;;;4.65;3.65;;;22.20;54.70;;;;;;5070578;28;20568;-48
2022/07/20 00:57:49;;;;;;;4.40;3.60;;;22.20;56.00;;;;;;5053160;28;20099;-45
2022/07/20 01:00:17;;;;;;;6.15;3.58;;;22.20;55.40;;;;;;5070283;28;20023;-45
2022/07/20 01:02:42;;;;;;;7.25;3.95;;;22.20;54.40;;;;;;5052379;28;20032;-46
2022/07/20 01:05:15;;;;;;;6.38;4.25;;;22.20;54.30;;;;;;5070238;28;20036;-45
2022/07/20 01:07:46;;;;;;;8.15;3.90;;;22.20;54.40;;;;;;5070209;28;20024;-46
2022/07/20 01:10:13;;;;;;;8.70;3.58;;;22.20;54.30;;;;;;5069865;28;20465;-45
2022/07/20 01:12:45;;;;;;;6.68;4.10;;;22.20;54.10;;;;;;5069862;28;20048;-46
2022/07/20 01:15:11;;;;;;;6.13;3.78;;;22.20;54.40;;;;;;5052032;28;20020;-46
2022/07/20 01:17:38;;;;;;;5.95;3.85;;;22.20;55.00;;;;;;5069168;28;20416;-46
2022/07/20 01:20:05;;;;;;;5.13;3.55;;;22.20;55.10;;;;;;5069081;28;20024;-45
2022/07/20 01:22:31;;;;;;;6.10;3.35;;;22.10;54.90;;;;;;5069243;28;20107;-47
2022/07/20 01:24:56;;;;;;;4.32;3.33;;;22.10;55.40;;;;;;5051545;28;20120;-46
2022/07/20 01:27:22;;;;;;;5.18;3.70;;;22.10;55.30;;;;;;5035240;28;20029;-46
2022/07/20 01:29:50;;;;;;;5.68;3.40;;;22.10;55.10;;;;;;5069710;28;20028;-46
2022/07/20 01:32:16;;;;;;;5.50;3.63;;;22.10;55.20;;;;;;5069698;28;20068;-45
2022/07/20 01:34:41;;;;;;;5.65;3.30;;;22.00;55.10;;;;;;5052176;28;20063;-46
2022/07/20 01:37:07;;;;;;;5.20;3.15;;;22.10;53.40;;;;;;5069596;28;20402;-46
2022/07/20 01:39:32;;;;;;;6.18;3.55;;;22.10;54.80;;;;;;5069580;28;20086;-46
2022/07/20 01:41:58;;;;;;;5.70;3.33;;;22.10;55.10;;;;;;5069484;28;20024;-45
2022/07/20 01:44:24;;;;;;;6.13;3.65;;;22.10;53.80;;;;;;5069200;28;20103;-46
2022/07/20 01:46:51;;;;;;;6.97;3.85;;;22.10;53.80;;;;;;5069254;28;20032;-46
2022/07/20 01:49:17;;;;;;;6.30;3.90;;;22.20;52.50;;;;;;5069466;28;20564;-47
2022/07/20 01:51:45;;;;;;;7.78;3.70;;;22.20;53.70;;;;;;5069526;28;20342;-49
2022/07/20 01:54:12;;;;;;;7.68;3.38;;;22.20;53.70;;;;;;5069441;28;20021;-47
2022/07/20 01:56:42;;;;;;;7.45;3.25;;;22.20;54.30;;;;;;5069344;28;20025;-46
2022/07/20 01:59:08;;;;;;;5.35;3.05;;;22.20;54.20;;;;;;5051680;28;20035;-46
2022/07/20 02:01:34;;;;;;;5.65;3.55;;;22.10;56.50;;;;;;5069310;28;20043;-46
2022/07/20 02:04:00;;;;;;;5.68;3.53;;;22.00;56.10;;;;;;5067351;28;20104;-46
2022/07/20 02:06:28;;;;;;;7.63;3.08;;;22.10;52.80;;;;;;5069166;28;20123;-46
2022/07/20 02:08:53;;;;;;;6.10;3.72;;;22.20;53.30;;;;;;5069275;28;20025;-47
2022/07/20 02:11:19;;;;;;;6.30;3.22;;;22.20;52.80;;;;;;5051742;28;20035;-46
2022/07/20 02:13:47;;;;;;;8.18;3.40;;;22.20;52.60;;;;;;5051493;28;20035;-46
2022/07/20 02:16:15;;;;;;;5.25;3.63;;;22.20;53.40;;;;;;5068969;28;20032;-47
2022/07/20 02:18:48;;;;;;;6.68;3.72;;;22.30;52.10;;;;;;5068912;28;20032;-45
2022/07/20 02:21:18;;;;;;;6.68;3.78;;;22.40;52.20;;;;;;5069187;28;20029;-46
2022/07/20 02:23:47;;;;;;;6.88;3.75;;;22.40;51.60;;;;;;5051315;28;20029;-45
2022/07/20 02:26:13;;;;;;;6.45;3.13;;;22.40;52.00;;;;;;5051273;28;20025;-46
2022/07/20 02:28:39;;;;;;;5.40;2.78;;;22.40;51.60;;;;;;5068570;28;20047;-46
2022/07/20 02:31:08;;;;;;;4.78;3.13;;;22.50;51.80;;;;;;5068811;28;20114;-46
2022/07/20 02:33:36;;;;;;;7.82;3.88;;;22.40;52.20;;;;;;5069476;28;20115;-49
2022/07/20 02:36:02;;;;;;;6.50;3.33;;;22.40;52.10;;;;;;5069027;28;20043;-45
2022/07/20 02:38:28;;;;;;;7.65;3.22;;;22.40;52.40;;;;;;5068632;28;20111;-46
2022/07/20 02:40:56;;;;;;;6.78;3.13;;;22.30;52.50;;;;;;5068690;28;20150;-46
2022/07/20 02:43:22;;;;;;;10.77;3.20;;;22.30;52.40;;;;;;5068669;28;20024;-46
2022/07/20 02:45:47;;;;;;;7.40;3.03;;;22.30;52.70;;;;;;5068915;28;20446;-46
2022/07/20 02:48:13;;;;;;;5.85;3.97;;;22.30;52.80;;;;;;5068875;28;20095;-46
2022/07/20 02:50:41;;;;;;;5.78;2.80;;;22.30;52.90;;;;;;5068270;28;20040;-47
2022/07/20 02:53:08;;;;;;;6.82;3.58;;;22.30;52.30;;;;;;5068961;28;20370;-47
2022/07/20 02:55:34;;;;;;;9.98;3.83;;;22.20;52.60;;;;;;5050782;28;20131;-45
2022/07/20 02:58:05;;;;;;;8.68;4.18;;;22.20;53.80;;;;;;5068798;28;20025;-47
2022/07/20 03:00:31;;;;;;;4.95;3.20;;;22.20;53.40;;;;;;5068411;28;20056;-45
2022/07/20 03:02:59;;;;;;;6.82;3.20;;;22.10;52.90;;;;;;5068710;28;20108;-46
2022/07/20 03:05:26;;;;;;;4.65;3.55;;;22.10;53.90;;;;;;5051131;28;20025;-46
2022/07/20 03:07:51;;;;;;;10.27;4.05;;;22.00;53.40;;;;;;5068582;28;20342;-46
2022/07/20 03:10:17;;;;;;;6.68;3.45;;;22.00;53.40;;;;;;5068470;28;20031;-45
2022/07/20 03:12:45;;;;;;;7.55;3.40;;;21.90;53.80;;;;;;5050678;28;20021;-50
2022/07/20 03:15:14;;;;;;;5.60;3.30;;;21.90;53.30;;;;;;5068844;28;20024;-46
2022/07/20 03:17:44;;;;;;;7.65;4.00;;;21.90;52.50;;;;;;5072104;28;20020;-45
2022/07/20 03:20:10;;;;;;;;;;;22.00;52.40;;;;;;5072363;28;20048;-45
2022/07/20 03:22:38;;;;;;;5.05;3.75;;;22.10;52.30;;;;;;5054016;28;20281;-46
2022/07/20 03:25:04;;;;;;;5.22;3.85;;;22.10;52.30;;;;;;5071675;28;20036;-48
2022/07/20 03:27:30;;;;;;;7.05;3.33;;;22.20;52.50;;;;;;5054274;28;20086;-45
2022/07/20 03:29:55;;;;;;;6.72;3.35;;;22.20;52.50;;;;;;5071456;28;20465;-47
2022/07/20 03:32:21;;;;;;;7.30;3.28;;;22.20;52.00;;;;;;5037175;28;20067;-45
2022/07/20 03:34:47;;;;;;;7.88;3.75;;;22.20;52.30;;;;;;5071611;28;20037;-46
2022/07/20 03:37:12;;;;;;;6.22;3.30;;;22.30;52.20;;;;;;5053534;28;20132;-49
2022/07/20 03:39:38;;;;;;;8.85;4.20;;;22.20;52.50;;;;;;5071556;28;20020;-45
2022/07/20 03:42:04;;;;;;;8.00;4.03;;;22.20;53.10;;;;;;5071516;28;20102;-46
2022/07/20 03:44:29;;;;;;;5.57;3.13;;;22.20;53.20;;;;;;5071157;28;20033;-45
2022/07/20 03:46:55;;;;;;;9.18;3.75;;;22.10;53.50;;;;;;5071460;28;20034;-46
2022/07/20 03:49:20;;;;;;;9.13;3.75;;;22.10;54.30;;;;;;5071311;28;20446;-45
2022/07/20 03:51:46;;;;;;;6.80;3.90;;;21.90;54.80;;;;;;5053739;28;20385;-48
2022/07/20 03:54:14;;;;;;;11.40;3.38;;;21.90;54.50;;;;;;5071571;28;20024;-45
2022/07/20 03:56:40;;;;;;;6.45;3.80;;;21.90;55.00;;;;;;5071163;28;20024;-46
2022/07/20 03:59:10;;;;;;;4.85;3.53;;;21.80;55.60;;;;;;5070787;28;20028;-46
2022/07/20 04:01:35;;;;;;;;;;;21.80;54.90;;;;;;5072023;28;20096;-48
2022/07/20 04:04:02;;;;;;;9.02;3.80;;;21.80;54.70;;;;;;5071213;28;19908;-46
2022/07/20 04:06:28;;;;;;;7.90;3.75;;;21.80;54.70;;;;;;5053840;28;20024;-45
2022/07/20 04:08:53;;;;;;;8.32;3.83;;;21.80;54.80;;;;;;5071358;28;20032;-45
2022/07/20 04:11:21;;;;;;;7.82;3.78;;;21.90;54.70;;;;;;5071454;28;20032;-46
2022/07/20 04:13:49;;;;;;;6.47;3.22;;;21.90;54.80;;;;;;5071212;28;20031;-45
2022/07/20 04:16:15;;;;;;;11.02;4.22;;;21.90;55.30;;;;;;5070907;28;20098;-47
2022/07/20 04:18:40;;;;;;;8.80;3.20;;;21.90;54.90;;;;;;5071180;28;20079;-45
2022/07/20 04:21:06;;;;;;;7.60;3.60;;;21.90;55.50;;;;;;5071441;28;20112;-46
2022/07/20 04:23:32;;;;;;;6.25;3.33;;;21.90;55.30;;;;;;5053684;28;20036;-46
2022/07/20 04:25:58;;;;;;;8.23;3.33;;;21.90;55.20;;;;;;5053367;28;20028;-46
2022/07/20 04:28:23;;;;;;;6.95;3.53;;;21.90;55.70;;;;;;5053244;28;20652;-46
2022/07/20 04:30:51;;;;;;;7.32;4.47;;;21.90;55.60;;;;;;5070951;28;20052;-46
2022/07/20 04:33:18;;;;;;;10.70;4.07;;;21.90;55.20;;;;;;5071507;28;20078;-45
2022/07/20 04:35:45;;;;;;;6.57;4.20;;;21.90;55.50;;;;;;5071118;28;20036;-45
2022/07/20 04:38:13;;;;;;;7.18;3.53;;;21.90;55.70;;;;;;5070750;28;20454;-48
2022/07/20 04:40:39;;;;;;;7.20;3.90;;;21.90;55.10;;;;;;5052797;28;20036;-46
2022/07/20 04:43:05;;;;;;;9.27;3.58;;;21.90;55.70;;;;;;5070911;28;20434;-46
2022/07/20 04:45:33;;;;;;;9.68;4.13;;;21.90;56.20;;;;;;5070626;28;20061;-48
2022/07/20 04:48:01;;;;;;;6.93;3.85;;;21.90;55.40;;;;;;5070493;28;20450;-47
2022/07/20 04:50:27;;;;;;;7.45;3.60;;;21.90;56.60;;;;;;5053042;28;20024;-45
2022/07/20 04:52:52;;;;;;;6.93;3.83;;;22.00;56.20;;;;;;5052946;28;20449;-46
2022/07/20 04:55:18;;;;;;;7.63;3.42;;;22.00;56.80;;;;;;5052475;28;20051;-48
2022/07/20 04:57:44;;;;;;;6.40;3.13;;;21.90;57.00;;;;;;5070524;28;20108;-45
2022/07/20 05:00:13;;;;;;;11.45;3.38;;;21.90;56.90;;;;;;5069578;28;20020;-47
2022/07/20 05:02:38;;;;;;;7.37;3.30;;;21.90;57.10;;;;;;5049710;28;20035;-46
2022/07/20 05:05:05;;;;;;;5.70;2.95;;;21.90;57.50;;;;;;5069116;28;20029;-46
2022/07/20 05:07:30;;;;;;;6.90;3.10;;;21.90;57.60;;;;;;5068988;28;20490;-45
2022/07/20 05:09:56;;;;;;;8.70;3.55;;;21.90;57.70;;;;;;5069318;28;20021;-45
2022/07/20 05:12:24;;;;;;;10.90;4.43;;;22.00;57.20;;;;;;5068445;28;20115;-46
2022/07/20 05:14:50;;;;;;;6.68;3.45;;;22.00;56.70;;;;;;5069388;28;20051;-46
2022/07/20 05:17:18;;;;;;;11.27;4.15;;;22.10;56.90;;;;;;5050052;28;20032;-46
2022/07/20 05:19:43;;;;;;;6.75;3.65;;;22.20;57.20;;;;;;5051517;28;20028;-46
2022/07/20 05:22:11;;;;;;;5.00;3.25;;;22.20;57.00;;;;;;5069333;28;20025;-46
2022/07/20 05:24:37;;;;;;;12.93;3.80;;;22.20;57.00;;;;;;5050970;28;20075;-47
2022/07/20 05:27:02;;;;;;;6.50;3.55;;;22.30;57.40;;;;;;5069484;28;20062;-45
2022/07/20 05:29:28;;;;;;;7.47;4.25;;;22.40;58.00;;;;;;5069693;28;20449;-47
2022/07/20 05:31:54;;;;;;;20.08;4.57;;;22.40;57.20;;;;;;5067884;28;20037;-49
2022/07/20 05:34:19;;;;;;;9.02;4.22;;;22.50;57.20;;;;;;5051153;28;20032;-45
2022/07/20 05:36:45;;;;;;;6.15;3.53;;;22.60;56.50;;;;;;5069099;28;20046;-46
2022/07/20 05:39:11;;;;;;;5.88;4.10;;;22.70;56.10;;;;;;5049244;28;20032;-47
2022/07/20 05:41:37;;;;;;;7.55;3.65;;;22.70;55.70;;;;;;5066877;28;20035;-46
2022/07/20 05:44:02;;;;;;;9.48;3.75;;;22.80;56.10;;;;;;5068911;28;20027;-46
2022/07/20 05:46:28;;;;;;;5.60;3.92;;;23.00;54.80;;;;;;5068134;28;20129;-46
2022/07/20 05:48:54;;;;;;;8.50;3.35;;;23.10;55.40;;;;;;5068324;28;20074;-48
2022/07/20 05:51:19;;;;;;;8.18;3.78;;;23.20;54.60;;;;;;5050755;28;20024;-46
2022/07/20 05:53:45;;;;;;;6.28;3.72;;;23.30;54.50;;;;;;5068689;28;20043;-50
2022/07/20 05:56:13;;;;;;;5.85;3.67;;;23.40;53.70;;;;;;5050447;28;20071;-49
2022/07/20 05:58:38;;;;;;;5.65;3.97;;;23.60;53.70;;;;;;5068993;28;20021;-46
2022/07/20 06:01:04;;;;;;;9.85;3.10;;;23.90;52.10;;;;;;5067703;28;20472;-47
2022/07/20 06:03:30;;;;;;;8.05;4.35;;;24.00;51.90;;;;;;5068748;28;20025;-46
2022/07/20 06:05:58;;;;;;;7.75;3.60;;;24.20;51.10;;;;;;5067682;28;20380;-46
2022/07/20 06:08:26;;;;;;;6.55;3.20;;;24.30;50.60;;;;;;5067078;28;20040;-46
2022/07/20 06:10:51;;;;;;;7.80;3.95;;;24.40;50.60;;;;;;5069341;28;20342;-48
2022/07/20 06:13:17;;;;;;;6.82;3.35;;;24.50;50.70;;;;;;5050051;28;20044;-46
2022/07/20 06:15:43;;;;;;;7.35;3.53;;;24.60;50.50;;;;;;5050695;28;20043;-47
2022/07/20 06:18:08;;;;;;;11.60;3.92;;;24.60;50.40;;;;;;5047912;28;20020;-47
2022/07/20 06:20:35;;;;;;;10.05;3.70;;;24.70;50.80;;;;;;5067707;28;20036;-45
2022/07/20 06:23:03;;;;;;;10.95;3.38;;;24.80;50.80;;;;;;5069505;28;20361;-46
2022/07/20 06:25:31;;;;;;;8.00;3.67;;;24.80;51.00;;;;;;5069128;28;20055;-47
2022/07/20 06:27:58;;;;;;;9.20;3.30;;;24.90;50.30;;;;;;5051854;28;20055;-48
2022/07/20 06:30:24;;;;;;;7.35;3.58;;;25.00;50.30;;;;;;5068627;28;20103;-45
2022/07/20 06:32:50;;;;;;;7.95;3.65;;;25.00;50.20;;;;;;5062238;28;20036;-46
2022/07/20 06:35:16;;;;;;;7.75;3.63;;;25.10;50.10;;;;;;5067559;28;20350;-46
2022/07/20 06:37:44;;;;;;;9.73;3.78;;;25.20;51.10;;;;;;5068553;28;20036;-46
2022/07/20 06:40:11;;;;;;;6.65;3.60;;;25.20;50.50;;;;;;5068713;28;20025;-47
2022/07/20 06:42:38;;;;;;;10.63;3.88;;;25.40;50.60;;;;;;5051335;28;20032;-48
2022/07/20 06:45:05;;;;;;;7.32;3.63;;;25.50;50.30;;;;;;5049853;28;20080;-46
2022/07/20 06:47:31;;;;;;;6.72;3.30;;;25.60;49.70;;;;;;5068422;28;20017;-46
2022/07/20 06:49:59;;;;;;;5.15;3.72;;;25.60;50.00;;;;;;5068887;28;20031;-47
2022/07/20 06:52:24;;;;;;;7.20;3.38;;;25.60;49.80;;;;;;5053684;28;20029;-49
2022/07/20 06:54:50;;;;;;;5.85;3.33;;;25.60;49.90;;;;;;5062012;28;20032;-48
2022/07/20 06:57:16;;;;;;;7.72;3.50;;;25.70;50.30;;;;;;5061475;28;20035;-46
2022/07/20 06:59:41;;;;;;;7.00;3.28;;;25.80;49.90;;;;;;5069919;28;20107;-46
2022/07/20 07:02:09;;;;;;;10.07;3.53;;;25.90;50.50;;;;;;5071180;28;20055;-46
2022/07/20 07:04:34;;;;;;;7.38;3.90;;;25.90;50.30;;;;;;5048037;28;20032;-46
2022/07/20 07:07:03;;;;;;;7.15;3.78;;;26.00;51.60;;;;;;5053241;28;20035;-46
2022/07/20 07:09:29;;;;;;;7.53;3.72;;;26.10;51.20;;;;;;5071939;28;20123;-46
2022/07/20 07:11:55;;;;;;;5.68;3.00;;;26.20;51.30;;;;;;5071527;28;20373;-47
2022/07/20 07:14:21;;;;;;;8.00;3.72;;;26.30;48.80;;;;;;5054140;28;20028;-47
2022/07/20 07:16:47;;;;;;;6.43;3.33;;;26.40;48.90;;;;;;5071228;28;20121;-46
2022/07/20 07:19:14;;;;;;;8.50;3.45;;;26.40;47.50;;;;;;5053645;28;20035;-46
2022/07/20 07:21:42;;;;;;;5.53;3.05;;;26.50;49.00;;;;;;5071379;28;20041;-47
2022/07/20 07:24:10;;;;;;;6.80;3.90;;;26.60;48.40;;;;;;5070386;28;20095;-46
2022/07/20 07:26:36;;;;;;;6.50;3.83;;;26.80;47.80;;;;;;5068390;28;20032;-46
2022/07/20 07:29:03;;;;;;;8.70;3.15;;;26.90;46.70;;;;;;5053472;28;20030;-46
2022/07/20 07:31:28;;;;;;;6.45;3.88;;;27.00;47.60;;;;;;5052689;28;20052;-46
2022/07/20 07:33:54;;;;;;;8.15;3.63;;;27.30;47.00;;;;;;5071074;28;20079;-47
2022/07/20 07:36:20;;;;;;;6.10;3.50;;;27.50;45.60;;;;;;5053730;28;20120;-46
2022/07/20 07:38:45;;;;;;;11.93;4.07;;;28.10;45.50;;;;;;5071130;28;20029;-47
2022/07/20 07:41:14;;;;;;;6.78;2.83;;;28.50;44.50;;;;;;5070444;28;20133;-46
2022/07/20 07:43:39;;;;;;;8.85;3.60;;;29.00;43.80;;;;;;5052354;28;20111;-49
2022/07/20 07:46:05;;;;;;;8.70;3.40;;;29.70;43.30;;;;;;5070065;28;20124;-49
2022/07/20 07:48:31;;;;;;;6.78;3.20;;;30.30;42.60;;;;;;5071147;28;20434;-49
2022/07/20 07:50:57;;;;;;;6.13;3.25;;;30.40;40.50;;;;;;5071186;28;20107;-47
2022/07/20 07:53:23;;;;;;;8.00;3.42;;;30.60;39.20;;;;;;5070725;28;20020;-47
2022/07/20 07:55:49;;;;;;;6.22;3.42;;;30.90;40.30;;;;;;5070780;28;20036;-48
2022/07/20 07:58:16;;;;;;;8.98;3.40;;;31.30;40.60;;;;;;5071153;28;20028;-50
2022/07/20 08:00:44;;;;;;;9.07;3.30;;;31.60;39.30;;;;;;5070876;28;20020;-49
2022/07/20 08:03:10;;;;;;;5.73;3.03;;;31.90;38.90;;;;;;5068563;28;20020;-47
2022/07/20 08:05:36;;;;;;;8.30;3.65;;;32.20;38.90;;;;;;5049825;28;20091;-50
2022/07/20 08:08:06;;;;;;;5.40;3.03;;;32.40;38.80;;;;;;5067523;28;20476;-48
2022/07/20 08:10:32;;;;;;;4.97;3.03;;;32.80;39.00;;;;;;5070814;28;20430;-47
2022/07/20 08:12:58;;;;;;;11.45;4.57;;;33.00;37.60;;;;;;5069924;28;20047;-47
2022/07/20 08:15:23;;;;;;;7.85;2.72;;;33.10;37.00;;;;;;5070963;28;20036;-50
2022/07/20 08:17:51;;;;;;;10.15;3.67;;;33.60;38.80;;;;;;5053037;28;20023;-47
2022/07/20 08:20:21;;;;;;;5.70;4.28;;;33.80;38.20;;;;;;5070799;28;20429;-48
2022/07/20 08:22:51;;;;;;;8.98;3.67;;;34.00;38.10;;;;;;5051563;28;20024;-49
2022/07/20 08:25:17;;;;;;;9.40;3.20;;;34.10;37.30;;;;;;5070305;28;20017;-48
2022/07/20 08:27:42;;;;;;;6.00;3.60;;;34.00;38.10;;;;;;5070776;28;20048;-47
2022/07/20 08:30:09;;;;;;;6.28;3.67;;;34.30;37.40;;;;;;5052493;28;20052;-47
2022/07/20 08:32:34;;;;;;;8.20;4.00;;;34.60;37.60;;;;;;5070007;28;20048;-47
2022/07/20 08:35:00;;;;;;;8.32;3.55;;;34.60;37.90;;;;;;5070344;28;20446;-47
2022/07/20 08:37:26;;;;;;;7.30;4.15;;;34.80;37.20;;;;;;5070495;28;20233;-49
2022/07/20 08:39:52;;;;;;;8.05;3.33;;;35.00;41.40;;;;;;5052455;28;20028;-49
2022/07/20 08:42:18;;;;;;;7.72;3.53;;;35.20;38.10;;;;;;5048850;28;20113;-47
2022/07/20 08:44:45;;;;;;;8.65;3.17;;;34.80;34.70;;;;;;5067792;28;20136;-47
2022/07/20 08:47:14;;;;;;;6.13;2.72;;;34.80;35.10;;;;;;5069899;28;20032;-49
2022/07/20 08:49:48;;;;;;;9.70;3.15;;;34.80;34.00;;;;;;5070323;28;20582;-48
2022/07/20 08:52:19;;;;;;;6.93;3.40;;;34.70;34.70;;;;;;5052337;28;20032;-47
2022/07/20 08:54:45;;;;;;;8.13;3.47;;;34.80;36.10;;;;;;5051401;28;20028;-47
2022/07/20 08:57:17;;;;;;;10.50;3.63;;;34.90;34.70;;;;;;5067639;28;20036;-48
2022/07/20 08:59:46;;;;;;;8.05;2.75;;;35.10;34.80;;;;;;5047445;28;20048;-51
2022/07/20 09:02:15;;;;;;;10.13;3.45;;;35.30;35.20;;;;;;5069594;28;20038;-47
2022/07/20 09:04:51;;;;;;;10.65;4.22;;;35.40;34.80;;;;;;5069525;28;20434;-47
2022/07/20 09:07:17;;;;;;;11.60;3.38;;;35.60;36.60;;;;;;5068652;28;20036;-46
2022/07/20 09:09:42;;;;;;;7.20;3.35;;;35.80;34.70;;;;;;5069235;28;20070;-47
2022/07/20 09:12:10;;;;;;;7.63;3.60;;;35.80;34.90;;;;;;5050840;28;20119;-49
2022/07/20 09:14:42;;;;;;;7.00;3.90;;;35.60;32.00;;;;;;5068618;28;20032;-52
2022/07/20 09:17:22;;;;;;;10.45;3.35;;;35.40;34.30;;;;;;5051738;28;20020;-47
2022/07/20 09:20:16;;;;;;;4.57;3.20;;;35.50;32.50;;;;;;5069235;28;20028;-48
2022/07/20 09:22:46;;;;;;;7.50;3.60;;;35.60;33.00;;;;;;5066410;28;20036;-47
2022/07/20 09:25:14;;;;;;;5.22;3.72;;;36.10;33.00;;;;;;5068987;28;20020;-51
2022/07/20 09:27:40;;;;;;;6.45;3.28;;;36.10;31.10;;;;;;5051299;28;20025;-49
2022/07/20 09:30:14;;;;;;;5.40;3.35;;;35.90;32.10;;;;;;5034354;28;20020;-47
2022/07/20 09:33:00;;;;;;;7.97;3.97;;;35.70;32.10;;;;;;5068904;28;20405;-50
2022/07/20 09:35:34;;;;;;;8.25;3.88;;;35.70;32.80;;;;;;5068351;28;20028;-50
2022/07/20 09:38:04;;;;;;;9.43;4.05;;;35.80;31.10;;;;;;5050823;28;20039;-49
2022/07/20 09:40:45;;;;;;;6.45;4.07;;;36.00;31.60;;;;;;5068590;28;20033;-51
2022/07/20 09:43:27;;;;;;;10.25;3.53;;;36.00;32.00;;;;;;5068556;28;20020;-52
2022/07/20 09:45:54;;;;;;;6.88;3.30;;;36.20;32.00;;;;;;5068119;28;20044;-47
2022/07/20 09:48:24;;;;;;;9.00;3.83;;;36.30;32.40;;;;;;5067961;28;20359;-49
2022/07/20 09:50:50;;;;;;;8.95;4.13;;;36.30;32.70;;;;;;5050206;28;20045;-47
2022/07/20 09:53:18;;;;;;;7.35;3.90;;;36.50;31.20;;;;;;5067198;28;20028;-48
2022/07/20 09:55:44;;;;;;;5.30;3.10;;;36.60;33.50;;;;;;5068133;28;20361;-50
2022/07/20 09:58:10;;;;;;;8.68;4.28;;;36.80;30.70;;;;;;5067791;28;20040;-51
2022/07/20 10:00:37;;;;;;;4.28;3.45;;;36.90;31.80;;;;;;5066785;28;20441;-48
2022/07/20 10:03:04;;;;;;;12.68;4.15;;;37.10;34.00;;;;;;5067933;28;20108;-50
2022/07/20 10:05:34;;;;;;;6.82;3.30;;;37.10;32.90;;;;;;5067351;28;20024;-52
2022/07/20 10:08:05;;;;;;;4.78;3.08;;;37.00;31.40;;;;;;5067293;28;20394;-50
2022/07/20 10:10:31;;;;;;;7.13;3.78;;;36.90;32.30;;;;;;5049535;28;20028;-50
2022/07/20 10:12:58;;;;;;;11.60;4.25;;;36.90;33.30;;;;;;5055906;28;20403;-46
2022/07/20 10:15:32;;;;;;;5.10;3.80;;;36.90;32.80;;;;;;5066776;28;20024;-47
2022/07/20 10:17:58;;;;;;;5.78;3.65;;;37.00;33.40;;;;;;5066821;28;20012;-50
2022/07/20 10:20:32;;;;;;;11.75;4.10;;;37.10;34.70;;;;;;5067287;28;20150;-47
2022/07/20 10:23:24;;;;;;;7.97;3.75;;;37.30;33.80;;;;;;5066519;28;20047;-47
2022/07/20 10:25:53;;;;;;;6.60;3.55;;;37.40;32.20;;;;;;5065551;28;20089;-49
2022/07/20 10:28:38;;;;;;;8.02;3.72;;;37.30;34.40;;;;;;5067609;28;20043;-49
2022/07/20 10:31:10;;;;;;;6.07;3.65;;;37.20;32.60;;;;;;5067814;28;20020;-48
2022/07/20 10:33:38;;;;;;;7.55;4.00;;;37.30;34.20;;;;;;5050348;28;20440;-47
2022/07/20 10:36:42;;;;;;;10.98;4.30;;;37.10;33.50;;;;;;5067718;28;20048;-47
2022/07/20 10:39:50;;;;;;;8.25;3.55;;;36.80;33.10;;;;;;5067092;28;20054;-49
2022/07/20 10:42:30;;;;;;;8.25;4.20;;;36.30;34.30;;;;;;5064775;28;20032;-47
2022/07/20 10:45:23;;;;;;;7.70;4.28;;;36.00;34.60;;;;;;5061979;28;20382;-49
2022/07/20 10:47:48;;;;;;;13.30;4.40;;;36.00;36.10;;;;;;5052226;28;20021;-47
2022/07/20 10:50:18;;;;;;;10.25;4.63;;;35.80;34.40;;;;;;5067256;28;20351;-47
2022/07/20 10:52:48;;;;;;;8.40;4.72;;;35.60;33.70;;;;;;5065222;28;20466;-47
2022/07/20 10:55:36;;;;;;;9.88;4.28;;;35.60;34.30;;;;;;5067856;28;20461;-48
2022/07/20 10:58:24;;;;;;;;;;;35.20;32.80;;;;;;5056234;28;20185;-47
2022/07/20 11:00:53;;;;;;;8.38;5.53;;;34.90;33.00;;;;;;5047974;28;20004;-48
2022/07/20 11:03:23;;;;;;;9.13;5.50;;;34.70;32.70;;;;;;5067500;28;20394;-47
2022/07/20 11:05:59;;;;;;;13.02;5.00;;;34.80;34.90;;;;;;5049731;28;20051;-47
2022/07/20 11:08:25;;;;;;;9.52;4.95;;;34.70;35.00;;;;;;5067863;28;20339;-47
2022/07/20 11:10:52;;;;;;;10.18;5.95;;;34.80;34.30;;;;;;5049750;28;20052;-47
2022/07/20 11:13:18;;;;;;;7.78;5.43;;;34.70;34.60;;;;;;5067085;28;20111;-50
2022/07/20 11:15:57;;;;;;;9.70;5.38;;;34.60;35.10;;;;;;5049829;28;20104;-49
2022/07/20 11:18:26;;;;;;;13.48;5.20;;;34.50;35.10;;;;;;5067488;28;20430;-47
2022/07/20 11:21:09;;;;;;;7.82;5.70;;;34.60;38.60;;;;;;5049815;28;20032;-47
2022/07/20 11:23:46;;;;;;;11.25;5.70;;;34.80;36.30;;;;;;5049953;28;20025;-47
2022/07/20 11:26:14;;;;;;;8.75;6.25;;;34.80;36.30;;;;;;5066857;28;20040;-47
2022/07/20 11:28:53;;;;;;;8.37;5.43;;;34.50;36.50;;;;;;5050028;28;20035;-48
2022/07/20 11:31:24;;;;;;;8.00;5.50;;;34.60;37.10;;;;;;5049692;28;20115;-47
2022/07/20 11:33:53;;;;;;;10.77;6.97;;;34.40;36.50;;;;;;5066296;28;20057;-49
2022/07/20 11:36:26;;;;;;;11.60;6.00;;;34.20;36.50;;;;;;5065670;28;20504;-49
2022/07/20 11:39:02;;;;;;;9.55;6.47;;;34.00;37.60;;;;;;5068676;28;20024;-52
2022/07/20 11:41:31;;;;;;;6.32;5.47;;;34.20;40.90;;;;;;5067271;28;20042;-53
2022/07/20 11:44:00;;;;;;;9.10;6.78;;;34.30;40.40;;;;;;5052204;28;20089;-49
2022/07/20 11:46:40;;;;;;;9.02;6.47;;;34.10;38.60;;;;;;5069836;28;20128;-47
2022/07/20 11:49:10;;;;;;;11.57;6.22;;;33.90;38.70;;;;;;5050229;28;20068;-47
2022/07/20 11:51:37;;;;;;;10.63;7.70;;;33.80;40.40;;;;;;5070265;28;20029;-47
2022/07/20 11:54:06;;;;;;;11.73;7.35;;;33.70;39.90;;;;;;5070547;28;20039;-51
2022/07/20 11:56:36;;;;;;;10.43;7.40;;;33.70;40.40;;;;;;5070000;28;20035;-48
2022/07/20 11:59:06;;;;;;;8.32;6.68;;;33.60;39.10;;;;;;5085502;28;20491;-47
2022/07/20 12:01:36;;;;;;;10.10;9.13;;;33.70;39.00;;;;;;5070086;28;20052;-51
2022/07/20 12:04:08;;;;;;;13.20;10.43;;;33.60;42.70;;;;;;5070388;28;20100;-51
2022/07/20 12:06:37;;;;;;;24.48;12.73;;;33.30;49.30;;;;;;5046641;28;20029;-49
2022/07/20 12:09:06;;;;;;;;;;;33.20;50.20;;;;;;5070034;28;20342;-51
2022/07/20 12:11:52;;;;;;;19.47;14.10;;;32.80;51.50;;;;;;5071202;28;19919;-53
2022/07/20 12:14:36;;;;;;;17.17;13.68;;;32.60;53.50;;;;;;5050672;28;20038;-49
2022/07/20 12:17:24;;;;;;;19.88;14.55;;;32.40;53.50;;;;;;5068668;28;20052;-48
2022/07/20 12:19:56;;;;;;;15.10;13.67;;;32.30;53.90;;;;;;5062179;28;20077;-46
2022/07/20 12:22:26;;;;;;;19.33;14.50;;;32.40;53.20;;;;;;5069591;28;20306;-47
2022/07/20 12:24:52;;;;;;;19.05;14.38;;;32.20;51.70;;;;;;5068912;28;20017;-46
2022/07/20 12:27:21;;;;;;;20.83;18.60;;;32.10;53.40;;;;;;5068707;28;20031;-48
2022/07/20 12:29:47;;;;;;;26.50;22.20;;;31.90;55.80;;;;;;5053089;28;20021;-50
2022/07/20 12:32:36;;;;;;;29.52;21.98;;;31.60;57.30;;;;;;5069931;28;20290;-47
2022/07/20 12:35:05;;;;;;;26.77;22.70;;;31.00;58.40;;;;;;5070273;28;20035;-50
2022/07/20 12:38:07;;;;;;;28.40;22.80;;;30.70;59.10;;;;;;5051860;28;20016;-49
2022/07/20 12:40:46;;;;;;;24.05;21.55;;;30.50;59.50;;;;;;4998367;28;20585;-46
2022/07/20 12:43:33;;;;;;;28.35;22.42;;;30.50;60.50;;;;;;5069264;28;20061;-47
2022/07/20 12:46:08;;;;;;;32.10;22.05;;;30.70;59.10;;;;;;5068842;28;20066;-46
2022/07/20 12:48:40;;;;;;;26.48;21.95;;;30.70;57.10;;;;;;5069043;28;20364;-47
2022/07/20 12:51:09;;;;;;;22.58;20.38;;;30.50;55.90;;;;;;5070385;28;20161;-46
2022/07/20 12:53:37;;;;;;;24.73;21.33;;;30.70;53.70;;;;;;5070246;28;20492;-48
2022/07/20 12:56:08;;;;;;;25.15;20.30;;;30.60;52.40;;;;;;5069283;28;20043;-50